createdAt,value
2018-03-15T00:02:00.169Z,100657.45
2018-03-15T00:04:35.405Z,100656.95
2018-03-15T00:07:04.491Z,100658.58
2018-03-15T00:09:33.697Z,100653.97
2018-03-15T00:12:02.839Z,100656.63
2018-03-15T00:14:32.250Z,100658.14
2018-03-15T00:17:01.600Z,100654.45
2018-03-15T00:19:30.953Z,100650.09
2018-03-15T00:22:00.407Z,100653.33
2018-03-15T00:24:29.525Z,100651.81
2018-03-15T00:26:58.685Z,100654.02
2018-03-15T00:29:28.146Z,100659.23
2018-03-15T00:31:57.375Z,100653.77
2018-03-15T00:34:26.329Z,100655.55
2018-03-15T00:36:55.851Z,100649.33
2018-03-15T00:39:25.255Z,100652.28
2018-03-15T00:41:54.325Z,100662.03
2018-03-15T00:44:23.658Z,100651.44
2018-03-15T00:46:52.829Z,100654.33
2018-03-15T00:49:21.940Z,100652.06
2018-03-15T00:51:51.483Z,100647.57
2018-03-15T00:54:20.482Z,100655.22
2018-03-15T00:56:49.781Z,100651.58
2018-03-15T00:59:19.014Z,100654.73
2018-03-15T01:01:48.159Z,100655.30
2018-03-15T01:04:17.274Z,100656.85
2018-03-15T01:06:46.698Z,100655.19
2018-03-15T01:09:16.010Z,100660.92
2018-03-15T01:11:45.000Z,100651.38
2018-03-15T01:14:14.174Z,100654.30
2018-03-15T01:16:43.165Z,100653.87
2018-03-15T01:19:12.233Z,100660.70
2018-03-15T01:21:41.018Z,100663.47
2018-03-15T01:24:10.357Z,100665.46
2018-03-15T01:26:39.695Z,100670.67
2018-03-15T01:29:08.785Z,100662.20
2018-03-15T01:31:37.985Z,100667.97
2018-03-15T01:34:07.259Z,100663.60
2018-03-15T01:36:36.557Z,100667.16
2018-03-15T01:39:05.691Z,100666.52
2018-03-15T01:41:34.993Z,100656.48
2018-03-15T01:44:04.144Z,100651.33
2018-03-15T01:46:33.645Z,100652.91
2018-03-15T01:49:02.902Z,100666.89
2018-03-15T01:51:32.097Z,100669.83
2018-03-15T01:54:01.448Z,100673.75
2018-03-15T01:56:30.999Z,100669.79
2018-03-15T01:59:00.029Z,100669.44
2018-03-15T02:01:29.246Z,100671.06
2018-03-15T02:03:58.446Z,100668.66
2018-03-15T02:06:27.541Z,100668.72
2018-03-15T02:08:56.661Z,100670.49
2018-03-15T02:11:25.873Z,100672.48
2018-03-15T02:13:54.825Z,100669.51
2018-03-15T02:16:23.939Z,100668.17
2018-03-15T02:18:52.949Z,100670.73
2018-03-15T02:21:21.912Z,100674.25
2018-03-15T02:23:50.934Z,100674.22
2018-03-15T02:26:19.979Z,100678.17
2018-03-15T02:28:49.293Z,100683.92
2018-03-15T02:31:18.297Z,100672.58
2018-03-15T02:33:47.238Z,100665.14
2018-03-15T02:36:16.350Z,100672.31
2018-03-15T02:38:45.802Z,100662.42
2018-03-15T02:41:15.198Z,100663.26
2018-03-15T02:43:44.647Z,100670.17
2018-03-15T02:46:13.742Z,100680.05
2018-03-15T02:48:42.994Z,100682.41
2018-03-15T02:51:12.311Z,100682.55
2018-03-15T02:53:41.841Z,100683.84
2018-03-15T02:56:11.046Z,100680.31
2018-03-15T02:58:40.037Z,100686.12
2018-03-15T03:01:09.209Z,100687.98
2018-03-15T03:03:38.494Z,100689.80
2018-03-15T03:06:07.896Z,100689.37
2018-03-15T03:08:37.033Z,100688.30
2018-03-15T03:11:06.254Z,100695.11
2018-03-15T03:13:35.697Z,100699.14
2018-03-15T03:16:05.215Z,100691.40
2018-03-15T03:18:34.913Z,100696.64
2018-03-15T03:21:04.322Z,100700.11
2018-03-15T03:23:33.523Z,100703.11
2018-03-15T03:26:03.035Z,100716.57
2018-03-15T03:28:32.569Z,100712.82
2018-03-15T03:31:01.786Z,100712.52
2018-03-15T03:33:30.870Z,100718.83
2018-03-15T03:36:00.221Z,100709.73
2018-03-15T03:38:29.725Z,100721.37
2018-03-15T03:40:59.101Z,100715.36
2018-03-15T03:43:28.079Z,100721.47
2018-03-15T03:45:57.601Z,100727.12
2018-03-15T03:48:27.033Z,100729.27
2018-03-15T03:50:55.959Z,100732.47
2018-03-15T03:53:25.180Z,100733.22
2018-03-15T03:55:55.140Z,100731.56
2018-03-15T03:58:24.337Z,100731.56
2018-03-15T04:00:53.477Z,100734.66
2018-03-15T04:03:22.668Z,100732.91
2018-03-15T04:05:51.908Z,100731.62
2018-03-15T04:08:21.073Z,100733.81
2018-03-15T04:10:50.537Z,100736.41
2018-03-15T04:13:19.881Z,100740.26
2018-03-15T04:15:48.867Z,100738.16
2018-03-15T04:18:18.233Z,100736.81
2018-03-15T04:20:47.373Z,100736.16
2018-03-15T04:23:16.465Z,100742.11
2018-03-15T04:25:45.565Z,100743.16
2018-03-15T04:28:14.936Z,100743.36
2018-03-15T04:30:44.369Z,100738.31
2018-03-15T04:33:13.729Z,100741.11
2018-03-15T04:35:43.030Z,100741.95
2018-03-15T04:38:12.620Z,100741.80
2018-03-15T04:40:41.601Z,100743.25
2018-03-15T04:43:10.937Z,100735.31
2018-03-15T04:45:40.477Z,100742.20
2018-03-15T04:48:09.540Z,100738.36
2018-03-15T04:50:38.788Z,100742.59
2018-03-15T04:53:07.929Z,100748.95
2018-03-15T04:55:37.080Z,100755.19
2018-03-15T04:58:06.380Z,100756.77
2018-03-15T05:00:35.430Z,100754.38
2018-03-15T05:03:04.769Z,100756.48
2018-03-15T05:05:33.921Z,100758.58
2018-03-15T05:08:03.259Z,100761.09
2018-03-15T05:10:32.381Z,100759.45
2018-03-15T05:13:01.358Z,100761.73
2018-03-15T05:15:30.510Z,100759.39
2018-03-15T05:17:59.881Z,100764.03
2018-03-15T05:20:29.275Z,100768.14
2018-03-15T05:22:58.717Z,100772.34
2018-03-15T05:25:27.961Z,100772.98
2018-03-15T05:27:57.135Z,100773.84
2018-03-15T05:30:26.871Z,100781.56
2018-03-15T05:32:55.985Z,100776.83
2018-03-15T05:35:25.433Z,100789.37
2018-03-15T05:37:54.700Z,100790.23
2018-03-15T05:40:24.043Z,100795.84
2018-03-15T05:42:53.066Z,100797.39
2018-03-15T05:45:22.425Z,100799.89
2018-03-15T05:47:52.043Z,100793.50
2018-03-15T05:50:21.088Z,100803.28
2018-03-15T05:52:50.549Z,100809.29
2018-03-15T05:55:19.837Z,100807.53
2018-03-15T05:57:49.392Z,100811.44
2018-03-15T06:00:18.985Z,100802.23
2018-03-15T06:02:48.041Z,100812.69
2018-03-15T06:05:17.252Z,100804.09
2018-03-15T06:07:46.442Z,100807.34
2018-03-15T06:10:15.997Z,100810.08
2018-03-15T06:12:45.359Z,100810.06
2018-03-15T06:15:14.629Z,100811.34
2018-03-15T06:17:44.773Z,100818.17
2018-03-15T06:20:14.130Z,100826.91
2018-03-15T06:22:43.313Z,100828.88
2018-03-15T06:25:12.373Z,100832.50
2018-03-15T06:27:41.492Z,100840.12
2018-03-15T06:30:10.737Z,100834.88
2018-03-15T06:32:40.215Z,100835.55
2018-03-15T06:35:09.586Z,100842.50
2018-03-15T06:37:38.685Z,100837.96
2018-03-15T06:40:07.943Z,100834.16
2018-03-15T06:42:37.311Z,100840.36
2018-03-15T06:45:06.371Z,100834.25
2018-03-15T06:47:35.866Z,100831.17
2018-03-15T06:50:05.349Z,100825.00
2018-03-15T06:52:34.883Z,100845.69
2018-03-15T06:55:04.386Z,100833.47
2018-03-15T06:57:33.685Z,100839.34
2018-03-15T07:00:03.182Z,100869.16
2018-03-15T07:02:32.614Z,100837.08
2018-03-15T07:05:01.799Z,100847.98
2018-03-15T07:07:31.023Z,100840.42
2018-03-15T07:10:00.201Z,100866.11
2018-03-15T07:12:30.722Z,100825.77
2018-03-15T07:15:00.279Z,100845.04
2018-03-15T07:17:30.045Z,100869.01
2018-03-15T07:19:59.398Z,100870.49
2018-03-15T07:22:28.650Z,100857.34
2018-03-15T07:24:57.842Z,100858.77
2018-03-15T07:27:27.245Z,100864.06
2018-03-15T07:29:56.759Z,100845.95
2018-03-15T07:32:26.313Z,100868.34
2018-03-15T07:34:55.714Z,100862.99
2018-03-15T07:37:25.197Z,100863.70
2018-03-15T07:39:54.433Z,100862.00
2018-03-15T07:42:23.938Z,100879.44
2018-03-15T07:44:53.327Z,100862.26
2018-03-15T07:47:22.814Z,100866.94
2018-03-15T07:49:52.237Z,100848.23
2018-03-15T07:52:21.554Z,100869.61
2018-03-15T07:54:51.100Z,100844.22
2018-03-15T07:57:20.589Z,100846.86
2018-03-15T07:59:50.460Z,100843.30
2018-03-15T08:02:19.601Z,100857.44
2018-03-15T08:04:48.674Z,100860.91
2018-03-15T08:07:17.961Z,100863.31
2018-03-15T08:09:47.327Z,100848.62
2018-03-15T08:12:16.607Z,100856.06
2018-03-15T08:14:46.249Z,100846.80
2018-03-15T08:17:15.921Z,100841.42
2018-03-15T08:19:45.097Z,100862.83
2018-03-15T08:22:14.321Z,100845.67
2018-03-15T08:24:43.338Z,100849.38
2018-03-15T08:27:12.838Z,100848.02
2018-03-15T08:29:42.231Z,100858.16
2018-03-15T08:32:11.417Z,100847.48
2018-03-15T08:34:40.821Z,100845.12
2018-03-15T08:37:09.885Z,100858.45
2018-03-15T08:39:39.266Z,100834.59
2018-03-15T08:42:08.526Z,100842.37
2018-03-15T08:44:38.047Z,100844.05
2018-03-15T08:47:07.239Z,100849.70
2018-03-15T08:49:36.365Z,100855.84
2018-03-15T08:52:05.666Z,100836.31
2018-03-15T08:54:34.922Z,100848.20
2018-03-15T08:57:04.698Z,100841.73
2018-03-15T08:59:34.087Z,100830.73
2018-03-15T09:02:03.298Z,100843.67
2018-03-15T09:04:32.949Z,100844.55
2018-03-15T09:07:02.309Z,100841.95
2018-03-15T09:09:31.706Z,100841.85
2018-03-15T09:12:00.853Z,100839.80
2018-03-15T09:14:30.258Z,100839.90
2018-03-15T09:16:59.559Z,100846.06
2018-03-15T09:19:28.763Z,100852.38
2018-03-15T09:21:57.922Z,100843.67
2018-03-15T09:24:27.279Z,100850.33
2018-03-15T09:26:56.406Z,100839.74
2018-03-15T09:29:25.419Z,100847.48
2018-03-15T09:31:54.581Z,100846.26
2018-03-15T09:34:23.604Z,100836.45
2018-03-15T09:36:53.149Z,100839.72
2018-03-15T09:39:22.350Z,100840.42
2018-03-15T09:41:51.909Z,100835.00
2018-03-15T09:44:21.623Z,100833.04
2018-03-15T09:46:51.038Z,100836.01
2018-03-15T09:49:20.161Z,100834.19
2018-03-15T09:51:49.194Z,100835.12
2018-03-15T09:54:18.338Z,100839.31
2018-03-15T09:56:47.570Z,100838.02
2018-03-15T09:59:16.997Z,100837.95
2018-03-15T10:01:46.575Z,100836.97
2018-03-15T10:04:16.095Z,100837.41
2018-03-15T10:06:45.489Z,100844.22
2018-03-15T10:09:15.164Z,100837.00
2018-03-15T10:11:44.381Z,100849.69
2018-03-15T10:14:13.581Z,100836.41
2018-03-15T10:16:43.198Z,100836.34
2018-03-15T10:19:12.809Z,100841.02
2018-03-15T10:21:42.156Z,100833.89
2018-03-15T10:24:11.531Z,100831.42
2018-03-15T10:26:40.858Z,100833.20
2018-03-15T10:29:10.111Z,100831.95
2018-03-15T10:31:39.431Z,100832.73
2018-03-15T10:34:08.965Z,100821.41
2018-03-15T10:36:38.582Z,100825.19
2018-03-15T10:39:07.722Z,100824.95
2018-03-15T10:41:37.271Z,100817.02
2018-03-15T10:44:06.655Z,100822.91
2018-03-15T10:46:36.105Z,100821.80
2018-03-15T10:49:05.741Z,100807.27
2018-03-15T10:51:35.049Z,100809.86
2018-03-15T10:54:04.362Z,100807.84
2018-03-15T10:56:33.753Z,100801.23
2018-03-15T10:59:02.971Z,100793.42
2018-03-15T11:01:37.963Z,100792.98
2018-03-15T11:04:11.121Z,100788.71
2018-03-15T11:06:41.061Z,100785.75
2018-03-15T11:12:17.995Z,100775.59
2018-03-15T11:14:47.157Z,100769.22
2018-03-15T11:17:16.657Z,100766.02
2018-03-15T11:19:46.037Z,100762.30
2018-03-15T11:22:15.466Z,100765.13
2018-03-15T11:24:44.709Z,100755.09
2018-03-15T11:27:13.912Z,100757.09
2018-03-15T11:29:43.214Z,100750.15
2018-03-15T11:32:12.523Z,100747.48
2018-03-15T11:34:42.279Z,100745.22
2018-03-15T11:37:11.485Z,100746.15
2018-03-15T11:39:40.509Z,100741.87
2018-03-15T11:42:09.867Z,100743.19
2018-03-15T11:44:38.869Z,100735.52
2018-03-15T11:47:08.371Z,100738.91
2018-03-15T11:49:37.821Z,100736.16
2018-03-15T11:52:07.235Z,100734.75
2018-03-15T11:54:36.373Z,100739.33
2018-03-15T11:57:05.965Z,100737.89
2018-03-15T11:59:35.138Z,100734.88
2018-03-15T12:02:04.340Z,100739.30
2018-03-15T12:04:33.566Z,100729.66
2018-03-15T12:07:02.845Z,100733.22
2018-03-15T12:09:32.126Z,100731.53
2018-03-15T12:12:01.492Z,100750.35
2018-03-15T12:14:30.997Z,100750.38
2018-03-15T12:17:00.304Z,100747.96
2018-03-15T12:19:29.643Z,100759.04
2018-03-15T12:21:59.149Z,100761.00
2018-03-15T12:24:28.575Z,100770.69
2018-03-15T12:26:57.751Z,100777.87
2018-03-15T12:29:27.245Z,100789.05
2018-03-15T12:31:57.029Z,100784.98
2018-03-15T12:34:26.265Z,100797.48
2018-03-15T12:36:55.824Z,100792.70
2018-03-15T12:39:25.442Z,100801.26
2018-03-15T12:41:54.655Z,100811.62
2018-03-15T12:44:24.702Z,100816.19
2018-03-15T12:46:54.205Z,100806.64
2018-03-15T12:49:23.550Z,100798.73
2018-03-15T12:51:52.532Z,100800.09
2018-03-15T12:54:21.701Z,100809.72
2018-03-15T12:56:51.267Z,100805.16
2018-03-15T12:59:20.497Z,100800.41
2018-03-15T13:01:49.736Z,100791.89
2018-03-15T13:04:18.699Z,100792.00
2018-03-15T13:06:48.410Z,100804.20
2018-03-15T13:09:17.756Z,100788.12
2018-03-15T13:11:46.919Z,100814.92
2018-03-15T13:14:16.109Z,100805.33
2018-03-15T13:16:45.584Z,100842.38
2018-03-15T13:19:15.021Z,100885.52
2018-03-15T13:21:44.477Z,100910.19
2018-03-15T13:24:14.039Z,100887.98
2018-03-15T13:26:43.365Z,100893.14
2018-03-15T13:29:13.214Z,100869.37
2018-03-15T13:31:42.342Z,100865.50
2018-03-15T13:34:11.754Z,100883.41
2018-03-15T13:36:41.289Z,100885.82
2018-03-15T13:39:20.999Z,100877.37
2018-03-15T13:41:55.358Z,100877.16
2018-03-15T13:44:24.627Z,100894.17
2018-03-15T13:46:54.083Z,100907.50
2018-03-15T13:49:23.525Z,100902.61
2018-03-15T13:51:52.724Z,100888.34
2018-03-15T13:54:22.031Z,100906.06
2018-03-15T13:56:51.117Z,100904.36
2018-03-15T13:59:20.185Z,100898.48
2018-03-15T14:01:49.313Z,100924.55
2018-03-15T14:04:18.776Z,100915.05
2018-03-15T14:06:48.053Z,100931.41
2018-03-15T14:09:17.457Z,100923.45
2018-03-15T14:11:46.513Z,100921.72
2018-03-15T14:14:15.567Z,100906.55
2018-03-15T14:16:44.647Z,100920.83
2018-03-15T14:19:13.943Z,100914.44
2018-03-15T14:21:43.255Z,100913.16
2018-03-15T14:24:12.650Z,100912.75
2018-03-15T14:26:41.826Z,100905.53
2018-03-15T14:29:11.209Z,100906.41
2018-03-15T14:31:40.572Z,100882.25
2018-03-15T14:34:09.857Z,100882.11
2018-03-15T14:36:38.922Z,100889.19
2018-03-15T14:39:08.065Z,100887.45
2018-03-15T14:41:37.535Z,100902.41
2018-03-15T14:44:06.617Z,100906.84
2018-03-15T14:46:35.776Z,100916.20
2018-03-15T14:49:04.863Z,100892.20
2018-03-15T14:51:34.412Z,100895.88
2018-03-15T14:54:03.721Z,100901.13
2018-03-15T14:56:32.912Z,100902.07
2018-03-15T14:59:02.473Z,100918.90
2018-03-15T15:01:31.654Z,100906.97
2018-03-15T15:04:01.108Z,100924.38
2018-03-15T15:06:30.425Z,100912.13
2018-03-15T15:08:59.732Z,100919.39
2018-03-15T15:11:29.153Z,100913.70
2018-03-15T15:13:58.145Z,100924.78
2018-03-15T15:16:27.561Z,100915.92
2018-03-15T15:18:56.876Z,100908.96
2018-03-15T15:21:26.466Z,100905.52
2018-03-15T15:23:55.770Z,100905.09
2018-03-15T15:26:25.234Z,100903.83
2018-03-15T15:28:54.802Z,100908.52
2018-03-15T15:31:24.210Z,100901.27
2018-03-15T15:33:53.637Z,100899.23
2018-03-15T15:36:23.057Z,100902.64
2018-03-15T15:38:52.499Z,100901.80
2018-03-15T15:41:21.801Z,100904.47
2018-03-15T15:43:51.053Z,100900.48
2018-03-15T15:46:20.361Z,100907.20
2018-03-15T15:48:49.434Z,100901.95
2018-03-15T15:51:18.714Z,100906.09
2018-03-15T15:53:47.651Z,100906.22
2018-03-15T15:56:16.856Z,100903.18
2018-03-15T15:58:45.946Z,100902.08
2018-03-15T16:01:15.068Z,100910.30
2018-03-15T16:03:44.381Z,100907.70
2018-03-15T16:06:13.641Z,100911.30
2018-03-15T16:08:43.103Z,100908.75
2018-03-15T16:11:12.466Z,100917.27
2018-03-15T16:13:41.985Z,100918.87
2018-03-15T16:16:11.325Z,100931.69
2018-03-15T16:18:41.868Z,100936.06
2018-03-15T16:21:11.129Z,100966.16
2018-03-15T16:23:40.515Z,100973.80
2018-03-15T16:26:09.693Z,100958.58
2018-03-15T16:28:39.119Z,100968.28
2018-03-15T16:31:09.023Z,100967.83
2018-03-15T16:33:38.305Z,100970.25
2018-03-15T16:36:07.517Z,100977.26
2018-03-15T16:38:37.224Z,100975.80
2018-03-15T16:41:06.556Z,100981.73
2018-03-15T16:43:35.673Z,100984.39
2018-03-15T16:46:04.676Z,100978.59
2018-03-15T16:48:33.655Z,100990.95
2018-03-15T16:51:02.937Z,100986.80
2018-03-15T16:53:32.197Z,100988.49
2018-03-15T16:56:01.352Z,100979.83
2018-03-15T16:58:30.638Z,100981.30
2018-03-15T17:01:00.657Z,100988.50
2018-03-15T17:03:29.918Z,100976.13
2018-03-15T17:05:58.978Z,100978.40
2018-03-15T17:08:27.903Z,100977.35
2018-03-15T17:10:57.021Z,100974.31
2018-03-15T17:13:26.379Z,100961.69
2018-03-15T17:15:55.745Z,100969.75
2018-03-15T17:18:25.094Z,100973.45
2018-03-15T17:20:54.201Z,100985.29
2018-03-15T17:23:23.567Z,100976.52
2018-03-15T17:25:52.661Z,100979.44
2018-03-15T17:28:21.737Z,100993.98
2018-03-15T17:30:50.956Z,100999.75
2018-03-15T17:33:20.221Z,100996.44
2018-03-15T17:35:49.341Z,100996.12
2018-03-15T17:38:18.845Z,100989.74
2018-03-15T17:40:48.086Z,100996.37
2018-03-15T17:43:17.013Z,100996.53
2018-03-15T17:45:46.093Z,100993.39
2018-03-15T17:48:15.110Z,100996.98
2018-03-15T17:50:44.415Z,100991.45
2018-03-15T17:53:13.749Z,100993.37
2018-03-15T17:55:42.999Z,100995.36
2018-03-15T17:58:12.310Z,100999.84
2018-03-15T18:00:41.614Z,101012.48
2018-03-15T18:03:10.758Z,101019.09
2018-03-15T18:05:39.987Z,101020.70
2018-03-15T18:08:09.629Z,101017.16
2018-03-15T18:10:38.563Z,101008.68
2018-03-15T18:13:07.863Z,101010.52
2018-03-15T18:15:37.031Z,100988.36
2018-03-15T18:18:06.141Z,101011.33
2018-03-15T18:20:35.327Z,101008.59
2018-03-15T18:23:04.629Z,101013.25
2018-03-15T18:25:33.874Z,101010.18
2018-03-15T18:28:02.989Z,101015.75
2018-03-15T18:30:32.403Z,101028.98
2018-03-15T18:33:01.385Z,101029.02
2018-03-15T18:35:30.576Z,101028.97
2018-03-15T18:37:59.909Z,101039.83
2018-03-15T18:40:29.239Z,101040.78
2018-03-15T18:42:58.205Z,101047.59
2018-03-15T18:45:27.429Z,101052.06
2018-03-15T18:47:56.668Z,101043.37
2018-03-15T18:50:25.981Z,101042.50
2018-03-15T18:52:54.997Z,101043.92
2018-03-15T18:55:23.950Z,101042.23
2018-03-15T18:57:53.291Z,101045.85
2018-03-15T19:00:22.899Z,101046.09
2018-03-15T19:02:51.887Z,101043.06
2018-03-15T19:05:21.353Z,101048.67
2018-03-15T19:07:50.719Z,101061.74
2018-03-15T19:10:19.885Z,101069.05
2018-03-15T19:12:48.895Z,101070.98
2018-03-15T19:15:18.839Z,101078.06
2018-03-15T19:17:47.952Z,101083.12
2018-03-15T19:20:17.071Z,101084.89
2018-03-15T19:22:46.370Z,101078.52
2018-03-15T19:25:15.582Z,101074.86
2018-03-15T19:27:44.672Z,101072.48
2018-03-15T19:30:14.083Z,101078.80
2018-03-15T19:32:43.327Z,101086.62
2018-03-15T19:35:12.704Z,101088.16
2018-03-15T19:37:41.982Z,101089.12
2018-03-15T19:40:10.961Z,101097.42
2018-03-15T19:42:40.163Z,101086.84
2018-03-15T19:45:09.248Z,101087.62
2018-03-15T19:47:38.650Z,101093.42
2018-03-15T19:50:07.939Z,101090.09
2018-03-15T19:52:37.055Z,101095.21
2018-03-15T19:55:06.449Z,101098.16
2018-03-15T19:57:35.977Z,101106.66
2018-03-15T20:00:05.302Z,101107.91
2018-03-15T20:02:34.557Z,101108.52
2018-03-15T20:05:03.857Z,101108.94
2018-03-15T20:07:33.426Z,101110.66
2018-03-15T20:10:02.669Z,101120.36
2018-03-15T20:12:31.965Z,101113.06
2018-03-15T20:15:01.415Z,101120.53
2018-03-15T20:17:30.574Z,101116.81
2018-03-15T20:20:00.249Z,101117.45
2018-03-15T20:22:35.383Z,101122.64
2018-03-15T20:25:05.289Z,101122.97
2018-03-15T20:27:39.805Z,101123.62
2018-03-15T20:30:09.194Z,101120.30
2018-03-15T20:32:44.248Z,101121.79
2018-03-15T20:35:13.598Z,101118.32
2018-03-15T20:37:43.102Z,101123.06
2018-03-15T20:40:18.123Z,101119.03
2018-03-15T20:42:47.229Z,101122.72
2018-03-15T20:45:22.157Z,101125.91
2018-03-15T20:47:56.889Z,101121.76
2018-03-15T20:50:26.407Z,101125.28
2018-03-15T20:52:55.909Z,101125.00
2018-03-15T20:55:25.557Z,101126.17
2018-03-15T20:57:55.023Z,101120.75
2018-03-15T21:00:24.318Z,101128.00
2018-03-15T21:02:53.658Z,101125.03
2018-03-15T21:05:22.841Z,101126.70
2018-03-15T21:07:52.062Z,101120.59
2018-03-15T21:10:21.217Z,101118.96
2018-03-15T21:12:50.621Z,101128.91
2018-03-15T21:15:19.918Z,101118.63
2018-03-15T21:17:48.863Z,101109.27
2018-03-15T21:20:18.267Z,101089.78
2018-03-15T21:22:47.417Z,101079.65
2018-03-15T21:25:16.609Z,101084.90
2018-03-15T21:27:45.919Z,101075.95
2018-03-15T21:30:15.325Z,101070.16
2018-03-15T21:32:44.657Z,101067.45
2018-03-15T21:35:13.926Z,101062.13
2018-03-15T21:37:43.321Z,101062.34
2018-03-15T21:40:12.416Z,101061.73
2018-03-15T21:42:41.723Z,101056.11
2018-03-15T21:45:11.023Z,101056.37
2018-03-15T21:47:40.321Z,101053.94
2018-03-15T21:50:09.617Z,101053.59
2018-03-15T21:52:39.752Z,101051.70
2018-03-15T21:55:08.937Z,101053.85
2018-03-15T21:57:38.397Z,101055.41
2018-03-15T22:00:07.639Z,101056.38
2018-03-15T22:02:37.118Z,101058.64
2018-03-15T22:05:06.341Z,101057.36
2018-03-15T22:07:35.767Z,101063.33
2018-03-15T22:10:05.301Z,101056.42
2018-03-15T22:12:34.739Z,101047.36
2018-03-15T22:15:03.885Z,101064.03
2018-03-15T22:17:33.089Z,101066.23
2018-03-15T22:20:03.577Z,101059.11
2018-03-15T22:22:32.891Z,101053.48
2018-03-15T22:25:04.848Z,101057.29
2018-03-15T22:27:39.170Z,101049.61
2018-03-15T22:30:08.325Z,101066.48
2018-03-15T22:32:37.778Z,101078.89
2018-03-15T22:35:07.440Z,101085.49
2018-03-15T22:37:37.185Z,101096.43
2018-03-15T22:40:06.793Z,101090.47
2018-03-15T22:42:36.601Z,101099.69
2018-03-15T22:45:06.010Z,101095.31
2018-03-15T22:47:35.263Z,101093.88
2018-03-15T22:50:04.814Z,101094.33
2018-03-15T22:52:34.179Z,101088.86
2018-03-15T22:55:03.892Z,101091.89
2018-03-15T22:57:36.364Z,101093.12
2018-03-15T23:00:06.570Z,101090.00
2018-03-15T23:02:35.546Z,101078.80
2018-03-15T23:05:04.980Z,101075.12
2018-03-15T23:07:34.570Z,101071.81
2018-03-15T23:10:04.177Z,101068.41
2018-03-15T23:12:33.650Z,101062.29
2018-03-15T23:15:02.941Z,101061.14
2018-03-15T23:17:31.991Z,101061.57
2018-03-15T23:20:01.165Z,101062.38
2018-03-15T23:22:30.551Z,101058.32
2018-03-15T23:24:59.645Z,101060.03
2018-03-15T23:27:29.241Z,101055.80
2018-03-15T23:29:58.285Z,101054.03
2018-03-15T23:32:27.537Z,101059.02
2018-03-15T23:34:56.847Z,101058.47
2018-03-15T23:37:26.076Z,101052.92
2018-03-15T23:39:55.089Z,101054.27
2018-03-15T23:42:24.451Z,101047.34
2018-03-15T23:44:53.633Z,101053.58
2018-03-15T23:47:22.839Z,101062.35
2018-03-15T23:49:52.267Z,101052.83
2018-03-15T23:52:21.732Z,101049.17
2018-03-15T23:54:50.840Z,101050.70
2018-03-15T23:57:20.047Z,101039.12
2018-03-15T23:59:49.297Z,101042.86
